You are listening to:
YSSY Director (Both) - Sydney, New South Wales, Australia

YSSY 060930Z 17017KT 9999 VCSH -DZ FEW012 BKN027 BKN040 15/14 Q1014

If stream doesn't start automatically press the play button
If stream stops then reload player then press play